North Sioux City, SD (57049)

5:05 AM CST on February 28, 2017 (GMT -0600)
Riverside Bluffs Sioux City | | Change Station

Elev 1286 ft 42.52 °N, 96.47 °W | Updated 1 minute ago

Scattered Clouds
Scattered Clouds
36.2 °F
Feels Like 36 °F
N
2.0
Wind Variable Wind from NW

Today
High -- | Low -- °F
--% Chance of Precip.
Yesterday
High -- | Low -- °F
Precip. -- in
Pressure 29.62 in
Visibility 10.0 miles
Clouds Few 1900 ft
Scattered Clouds 5500 ft
Windchill 36 °F
Dew Point 34 °F
Humidity 92%
Rainfall 0.02 in
Snow Depth Not available.
7:02 AM 6:14 PM
Waxing Crescent, 4% visible
METAR KSUX 281052Z 35005KT 10SM FEW019 SCT055 01/M02 A2960 RMK AO2 SLP031 T00061017
Pressure 29.62 in
Visibility 10.0 miles
Clouds Few 1900 ft
Scattered Clouds 5500 ft
Windchill 36 °F
Dew Point 34 °F
Humidity 92%
Rainfall 0.02 in
Snow Depth Not available.
7:02 AM 6:14 PM
Waxing Crescent, 4% visible
METAR KSUX 281052Z 35005KT 10SM FEW019 SCT055 01/M02 A2960 RMK AO2 SLP031 T00061017

Get Your Daily Forecast Email!

Thanks for signing up!

Be on the lookout for a verification email in your inbox.

You'll start receiving the daily forecast at 8 AM.

×

10-Day Weather Forecast

Almanac

Astronomy

Feb. 28, 2017 Rise Set
Actual Time
Civil Twilight
Nautical Twilight
Astronomical Twilight
Moon
Length of Visible Light
Length of Day
Tomorrow will be .
, % of the Moon is Illuminated

Today's Extremes

State Highs State Lows

Community

WunderPhotos

Upload Photos

1,962,540 photos uploaded!

WunderBlog® & News

Nearby

Air Quality

  Air Quality AQ Index Pollutant
Not available.

Snow Depth

Station Depth Elevation

Earthquake Activity

City Distance Mag. Time & Date
Minimum magnitude displayed is 2.5.

Coastal Water Temperatures

Place Temperature

Stations

Nearby Weather Stations

Station Location Temp. Windchill Dew Point Humidity Wind Precip. Elev Updated Type
                   

Watches & Warnings

There are currently no watches in effect.